Terminal Aerodrome Forecast
Issued by NWS

Home | Current Version | Previous Version | Text Only | Print | Product List | Glossary On
Versions: 1 2 3 4 5 6 7 8 9 10 11 12 13 14 15 16 17 18 19
000
FTUS43 KJKL 272332
TAFSME
TAF
KSME 272332Z 2800/2824 23005KT 6SM BR VCSH SCT030 BKN050
     FM280400 VRB03KT 4SM BR SCT050
     FM280800 VRB03KT 1/2SM FG FEW050
     FM281300 00000KT P6SM SCT250
     FM281600 VRB06KT P6SM VCTS BKN050CB=

USA.gov is the U.S. government's official web portal to all federal, state and local government web resources and services.